sensor_id;sensor_type;location;lat;lon;timestamp;P1;durP1;ratioP1;P2;durP2;ratioP2
36253;SDS011;22291;52.250;21.228;2023-04-01T00:01:00;24.18;;;15.13;;
36253;SDS011;22291;52.250;21.228;2023-04-01T00:03:29;27.67;;;14.40;;
36253;SDS011;22291;52.250;21.228;2023-04-01T00:05:58;24.52;;;15.48;;
36253;SDS011;22291;52.250;21.228;2023-04-01T00:08:26;30.10;;;15.85;;
36253;SDS011;22291;52.250;21.228;2023-04-01T00:10:54;23.77;;;14.38;;
36253;SDS011;22291;52.250;21.228;2023-04-01T00:13:23;21.10;;;14.73;;
36253;SDS011;22291;52.250;21.228;2023-04-01T00:15:52;31.35;;;15.70;;
36253;SDS011;22291;52.250;21.228;2023-04-01T00:18:21;19.57;;;13.83;;
36253;SDS011;22291;52.250;21.228;2023-04-01T00:20:49;22.58;;;14.25;;
36253;SDS011;22291;52.250;21.228;2023-04-01T00:23:18;29.07;;;16.35;;
36253;SDS011;22291;52.250;21.228;2023-04-01T00:25:46;25.65;;;16.77;;
36253;SDS011;22291;52.250;21.228;2023-04-01T00:28:15;28.60;;;15.38;;
36253;SDS011;22291;52.250;21.228;2023-04-01T00:30:43;24.55;;;15.85;;
36253;SDS011;22291;52.250;21.228;2023-04-01T00:33:11;26.85;;;16.00;;
36253;SDS011;22291;52.250;21.228;2023-04-01T00:35:38;24.75;;;15.48;;
36253;SDS011;22291;52.250;21.228;2023-04-01T00:38:04;21.50;;;14.78;;
36253;SDS011;22291;52.250;21.228;2023-04-01T00:40:37;26.35;;;15.20;;
36253;SDS011;22291;52.250;21.228;2023-04-01T00:43:15;23.90;;;15.65;;
36253;SDS011;22291;52.250;21.228;2023-04-01T00:45:43;23.45;;;14.58;;
36253;SDS011;22291;52.250;21.228;2023-04-01T00:50:50;22.90;;;15.10;;
36253;SDS011;22291;52.250;21.228;2023-04-01T00:53:21;30.97;;;15.75;;
36253;SDS011;22291;52.250;21.228;2023-04-01T00:55:50;28.10;;;16.42;;
36253;SDS011;22291;52.250;21.228;2023-04-01T00:58:23;30.77;;;16.70;;
36253;SDS011;22291;52.250;21.228;2023-04-01T01:00:52;28.77;;;16.45;;
36253;SDS011;22291;52.250;21.228;2023-04-01T01:03:21;31.82;;;17.27;;
36253;SDS011;22291;52.250;21.228;2023-04-01T01:05:52;27.48;;;16.52;;
36253;SDS011;22291;52.250;21.228;2023-04-01T01:11:09;28.42;;;17.42;;
36253;SDS011;22291;52.250;21.228;2023-04-01T01:13:48;27.37;;;17.10;;
36253;SDS011;22291;52.250;21.228;2023-04-01T01:16:25;29.65;;;17.40;;
36253;SDS011;22291;52.250;21.228;2023-04-01T01:22:11;29.72;;;17.75;;
36253;SDS011;22291;52.250;21.228;2023-04-01T01:27:20;30.85;;;18.30;;
36253;SDS011;22291;52.250;21.228;2023-04-01T01:32:59;28.20;;;16.30;;
36253;SDS011;22291;52.250;21.228;2023-04-01T01:35:40;30.23;;;18.32;;
36253;SDS011;22291;52.250;21.228;2023-04-01T01:38:23;27.93;;;16.80;;
36253;SDS011;22291;52.250;21.228;2023-04-01T01:40:53;31.68;;;18.90;;
36253;SDS011;22291;52.250;21.228;2023-04-01T01:43:28;28.95;;;17.62;;
36253;SDS011;22291;52.250;21.228;2023-04-01T01:46:10;31.95;;;18.98;;
36253;SDS011;22291;52.250;21.228;2023-04-01T01:48:47;33.28;;;18.37;;
36253;SDS011;22291;52.250;21.228;2023-04-01T01:51:17;25.50;;;16.45;;
36253;SDS011;22291;52.250;21.228;2023-04-01T01:53:46;27.65;;;17.25;;
36253;SDS011;22291;52.250;21.228;2023-04-01T01:56:12;32.53;;;18.62;;
36253;SDS011;22291;52.250;21.228;2023-04-01T02:01:12;30.45;;;16.95;;
36253;SDS011;22291;52.250;21.228;2023-04-01T02:03:45;35.00;;;17.15;;
36253;SDS011;22291;52.250;21.228;2023-04-01T02:06:13;29.32;;;17.15;;
36253;SDS011;22291;52.250;21.228;2023-04-01T02:08:47;30.25;;;18.02;;
36253;SDS011;22291;52.250;21.228;2023-04-01T02:11:36;32.30;;;18.30;;
36253;SDS011;22291;52.250;21.228;2023-04-01T02:14:19;31.20;;;16.55;;
36253;SDS011;22291;52.250;21.228;2023-04-01T02:19:25;34.30;;;19.67;;
36253;SDS011;22291;52.250;21.228;2023-04-01T02:21:56;33.65;;;19.20;;
36253;SDS011;22291;52.250;21.228;2023-04-01T02:24:27;39.40;;;22.15;;
36253;SDS011;22291;52.250;21.228;2023-04-01T02:26:57;35.40;;;21.77;;
36253;SDS011;22291;52.250;21.228;2023-04-01T02:29:24;43.38;;;22.25;;
36253;SDS011;22291;52.250;21.228;2023-04-01T02:31:51;36.28;;;22.42;;
36253;SDS011;22291;52.250;21.228;2023-04-01T02:34:20;37.35;;;22.52;;
36253;SDS011;22291;52.250;21.228;2023-04-01T02:36:48;37.35;;;20.97;;
36253;SDS011;22291;52.250;21.228;2023-04-01T02:39:16;37.10;;;21.27;;
36253;SDS011;22291;52.250;21.228;2023-04-01T02:41:45;37.80;;;21.85;;
36253;SDS011;22291;52.250;21.228;2023-04-01T02:44:13;37.80;;;20.00;;
36253;SDS011;22291;52.250;21.228;2023-04-01T02:46:40;35.27;;;19.73;;
36253;SDS011;22291;52.250;21.228;2023-04-01T02:49:07;38.23;;;19.10;;
36253;SDS011;22291;52.250;21.228;2023-04-01T02:51:34;34.58;;;19.25;;
36253;SDS011;22291;52.250;21.228;2023-04-01T02:54:00;33.53;;;19.05;;
36253;SDS011;22291;52.250;21.228;2023-04-01T02:56:28;32.48;;;18.85;;
36253;SDS011;22291;52.250;21.228;2023-04-01T02:58:54;35.13;;;19.55;;
36253;SDS011;22291;52.250;21.228;2023-04-01T03:01:22;32.08;;;19.17;;
36253;SDS011;22291;52.250;21.228;2023-04-01T03:03:50;28.80;;;18.70;;
36253;SDS011;22291;52.250;21.228;2023-04-01T03:06:16;28.27;;;18.00;;
36253;SDS011;22291;52.250;21.228;2023-04-01T03:08:44;32.33;;;18.67;;
36253;SDS011;22291;52.250;21.228;2023-04-01T03:11:11;32.13;;;19.02;;
36253;SDS011;22291;52.250;21.228;2023-04-01T03:13:39;33.75;;;18.52;;
36253;SDS011;22291;52.250;21.228;2023-04-01T03:16:05;36.77;;;19.98;;
36253;SDS011;22291;52.250;21.228;2023-04-01T03:18:32;33.75;;;19.23;;
36253;SDS011;22291;52.250;21.228;2023-04-01T03:21:12;34.98;;;20.32;;
36253;SDS011;22291;52.250;21.228;2023-04-01T03:23:45;34.45;;;18.73;;
36253;SDS011;22291;52.250;21.228;2023-04-01T03:26:12;35.00;;;19.00;;
36253;SDS011;22291;52.250;21.228;2023-04-01T03:28:39;33.45;;;19.57;;
36253;SDS011;22291;52.250;21.228;2023-04-01T03:31:05;34.05;;;19.98;;
36253;SDS011;22291;52.250;21.228;2023-04-01T03:33:32;34.80;;;18.77;;
36253;SDS011;22291;52.250;21.228;2023-04-01T03:35:59;38.10;;;20.27;;
36253;SDS011;22291;52.250;21.228;2023-04-01T03:38:26;36.77;;;21.17;;
36253;SDS011;22291;52.250;21.228;2023-04-01T03:40:52;32.93;;;18.92;;
36253;SDS011;22291;52.250;21.228;2023-04-01T03:43:18;36.23;;;20.80;;
36253;SDS011;22291;52.250;21.228;2023-04-01T03:45:46;37.38;;;20.48;;
36253;SDS011;22291;52.250;21.228;2023-04-01T03:48:16;41.02;;;21.68;;
36253;SDS011;22291;52.250;21.228;2023-04-01T03:50:43;35.05;;;21.80;;
36253;SDS011;22291;52.250;21.228;2023-04-01T03:53:10;40.03;;;22.45;;
36253;SDS011;22291;52.250;21.228;2023-04-01T03:55:37;40.85;;;23.30;;
36253;SDS011;22291;52.250;21.228;2023-04-01T03:58:05;41.73;;;22.48;;
36253;SDS011;22291;52.250;21.228;2023-04-01T04:00:33;43.75;;;24.00;;
36253;SDS011;22291;52.250;21.228;2023-04-01T04:03:00;40.40;;;23.42;;
36253;SDS011;22291;52.250;21.228;2023-04-01T04:05:27;38.95;;;24.05;;
36253;SDS011;22291;52.250;21.228;2023-04-01T04:07:54;45.00;;;25.55;;
36253;SDS011;22291;52.250;21.228;2023-04-01T04:10:21;42.35;;;23.90;;
36253;SDS011;22291;52.250;21.228;2023-04-01T04:12:49;53.87;;;25.85;;
36253;SDS011;22291;52.250;21.228;2023-04-01T04:15:17;41.75;;;23.55;;
36253;SDS011;22291;52.250;21.228;2023-04-01T04:17:45;40.23;;;22.02;;
36253;SDS011;22291;52.250;21.228;2023-04-01T04:20:12;40.52;;;22.58;;
36253;SDS011;22291;52.250;21.228;2023-04-01T04:22:40;42.08;;;23.07;;
36253;SDS011;22291;52.250;21.228;2023-04-01T04:25:07;38.45;;;23.05;;
36253;SDS011;22291;52.250;21.228;2023-04-01T04:27:34;43.17;;;23.00;;
36253;SDS011;22291;52.250;21.228;2023-04-01T04:30:01;40.23;;;23.60;;
36253;SDS011;22291;52.250;21.228;2023-04-01T04:32:29;37.60;;;23.10;;
36253;SDS011;22291;52.250;21.228;2023-04-01T04:34:56;43.48;;;22.58;;
36253;SDS011;22291;52.250;21.228;2023-04-01T04:37:23;39.92;;;22.77;;
36253;SDS011;22291;52.250;21.228;2023-04-01T04:39:51;42.88;;;23.90;;
36253;SDS011;22291;52.250;21.228;2023-04-01T04:42:18;40.88;;;21.90;;
36253;SDS011;22291;52.250;21.228;2023-04-01T04:44:45;38.35;;;22.87;;
36253;SDS011;22291;52.250;21.228;2023-04-01T04:47:11;40.92;;;21.97;;
36253;SDS011;22291;52.250;21.228;2023-04-01T04:49:37;42.98;;;22.35;;
36253;SDS011;22291;52.250;21.228;2023-04-01T04:52:03;38.38;;;22.22;;
36253;SDS011;22291;52.250;21.228;2023-04-01T04:54:29;41.83;;;22.58;;
36253;SDS011;22291;52.250;21.228;2023-04-01T04:56:55;42.13;;;22.60;;
36253;SDS011;22291;52.250;21.228;2023-04-01T04:59:22;39.05;;;21.37;;
36253;SDS011;22291;52.250;21.228;2023-04-01T05:01:49;39.80;;;21.65;;
36253;SDS011;22291;52.250;21.228;2023-04-01T05:04:15;38.98;;;22.45;;
36253;SDS011;22291;52.250;21.228;2023-04-01T05:06:42;40.00;;;22.42;;
36253;SDS011;22291;52.250;21.228;2023-04-01T05:09:10;39.18;;;22.13;;
36253;SDS011;22291;52.250;21.228;2023-04-01T05:11:36;33.98;;;20.85;;
36253;SDS011;22291;52.250;21.228;2023-04-01T05:14:03;40.10;;;21.73;;
36253;SDS011;22291;52.250;21.228;2023-04-01T05:16:29;39.88;;;21.15;;
36253;SDS011;22291;52.250;21.228;2023-04-01T05:18:57;33.83;;;20.15;;
36253;SDS011;22291;52.250;21.228;2023-04-01T05:21:23;35.98;;;19.90;;
36253;SDS011;22291;52.250;21.228;2023-04-01T05:23:49;33.83;;;19.12;;
36253;SDS011;22291;52.250;21.228;2023-04-01T05:26:16;37.15;;;19.70;;
36253;SDS011;22291;52.250;21.228;2023-04-01T05:28:42;31.05;;;18.57;;
36253;SDS011;22291;52.250;21.228;2023-04-01T05:31:08;30.15;;;18.65;;
36253;SDS011;22291;52.250;21.228;2023-04-01T05:33:36;32.38;;;17.65;;
36253;SDS011;22291;52.250;21.228;2023-04-01T05:36:10;29.67;;;18.77;;
36253;SDS011;22291;52.250;21.228;2023-04-01T05:38:41;30.15;;;16.90;;
36253;SDS011;22291;52.250;21.228;2023-04-01T05:43:38;24.27;;;14.03;;
36253;SDS011;22291;52.250;21.228;2023-04-01T05:46:06;27.87;;;15.15;;
36253;SDS011;22291;52.250;21.228;2023-04-01T05:48:33;24.77;;;15.93;;
36253;SDS011;22291;52.250;21.228;2023-04-01T05:51:01;20.97;;;15.20;;
36253;SDS011;22291;52.250;21.228;2023-04-01T05:53:30;21.07;;;14.53;;
36253;SDS011;22291;52.250;21.228;2023-04-01T05:55:56;22.65;;;15.05;;
36253;SDS011;22291;52.250;21.228;2023-04-01T05:58:29;24.40;;;14.15;;
36253;SDS011;22291;52.250;21.228;2023-04-01T06:01:00;20.15;;;12.75;;
36253;SDS011;22291;52.250;21.228;2023-04-01T06:03:30;21.07;;;13.58;;
36253;SDS011;22291;52.250;21.228;2023-04-01T06:05:58;17.55;;;12.50;;
36253;SDS011;22291;52.250;21.228;2023-04-01T06:08:24;18.60;;;12.95;;
36253;SDS011;22291;52.250;21.228;2023-04-01T06:16:45;20.32;;;12.28;;
36253;SDS011;22291;52.250;21.228;2023-04-01T06:30:53;19.40;;;12.82;;
36253;SDS011;22291;52.250;21.228;2023-04-01T06:33:35;17.23;;;11.10;;
36253;SDS011;22291;52.250;21.228;2023-04-01T06:36:34;18.52;;;11.50;;
36253;SDS011;22291;52.250;21.228;2023-04-01T06:39:31;17.45;;;10.40;;
36253;SDS011;22291;52.250;21.228;2023-04-01T06:42:11;16.12;;;10.85;;
36253;SDS011;22291;52.250;21.228;2023-04-01T06:54:13;13.80;;;8.65;;
36253;SDS011;22291;52.250;21.228;2023-04-01T06:57:00;13.88;;;9.75;;
36253;SDS011;22291;52.250;21.228;2023-04-01T06:59:35;16.97;;;10.38;;
36253;SDS011;22291;52.250;21.228;2023-04-01T07:02:05;17.37;;;10.55;;
36253;SDS011;22291;52.250;21.228;2023-04-01T07:04:40;15.25;;;10.35;;
36253;SDS011;22291;52.250;21.228;2023-04-01T07:09:57;14.73;;;9.58;;
36253;SDS011;22291;52.250;21.228;2023-04-01T07:18:02;15.50;;;10.82;;
36253;SDS011;22291;52.250;21.228;2023-04-01T07:20:43;19.25;;;10.85;;
36253;SDS011;22291;52.250;21.228;2023-04-01T07:23:15;15.00;;;10.18;;
36253;SDS011;22291;52.250;21.228;2023-04-01T07:26:06;21.73;;;11.22;;
36253;SDS011;22291;52.250;21.228;2023-04-01T07:28:48;21.33;;;12.68;;
36253;SDS011;22291;52.250;21.228;2023-04-01T07:31:22;20.97;;;12.35;;
36253;SDS011;22291;52.250;21.228;2023-04-01T07:34:10;20.37;;;13.60;;
36253;SDS011;22291;52.250;21.228;2023-04-01T07:37:11;17.35;;;12.80;;
36253;SDS011;22291;52.250;21.228;2023-04-01T07:39:56;20.60;;;12.10;;
36253;SDS011;22291;52.250;21.228;2023-04-01T07:54:26;14.00;;;10.30;;
36253;SDS011;22291;52.250;21.228;2023-04-01T07:56:59;15.72;;;11.55;;
36253;SDS011;22291;52.250;21.228;2023-04-01T08:00:18;14.40;;;9.95;;
36253;SDS011;22291;52.250;21.228;2023-04-01T08:02:26;12.23;;;9.08;;
36253;SDS011;22291;52.250;21.228;2023-04-01T08:11:16;15.35;;;10.15;;
36253;SDS011;22291;52.250;21.228;2023-04-01T08:19:45;19.50;;;12.50;;
36253;SDS011;22291;52.250;21.228;2023-04-01T08:22:23;19.10;;;12.80;;
36253;SDS011;22291;52.250;21.228;2023-04-01T08:24:49;19.32;;;13.05;;
36253;SDS011;22291;52.250;21.228;2023-04-01T08:27:20;21.57;;;14.18;;
36253;SDS011;22291;52.250;21.228;2023-04-01T08:30:21;19.67;;;13.80;;
36253;SDS011;22291;52.250;21.228;2023-04-01T08:32:57;19.02;;;13.40;;
36253;SDS011;22291;52.250;21.228;2023-04-01T08:35:33;19.60;;;13.72;;
36253;SDS011;22291;52.250;21.228;2023-04-01T08:38:26;19.45;;;12.55;;
36253;SDS011;22291;52.250;21.228;2023-04-01T08:41:00;18.20;;;11.20;;
36253;SDS011;22291;52.250;21.228;2023-04-01T08:58:14;14.95;;;9.58;;
36253;SDS011;22291;52.250;21.228;2023-04-01T09:01:10;11.48;;;9.20;;
36253;SDS011;22291;52.250;21.228;2023-04-01T09:07:04;19.48;;;12.18;;
36253;SDS011;22291;52.250;21.228;2023-04-01T09:19:11;20.85;;;14.90;;
36253;SDS011;22291;52.250;21.228;2023-04-01T09:24:32;13.38;;;8.93;;
36253;SDS011;22291;52.250;21.228;2023-04-01T09:30:31;13.68;;;9.03;;
36253;SDS011;22291;52.250;21.228;2023-04-01T09:33:36;11.60;;;8.35;;
36253;SDS011;22291;52.250;21.228;2023-04-01T09:41:39;12.63;;;6.78;;
36253;SDS011;22291;52.250;21.228;2023-04-01T09:44:32;9.03;;;6.78;;
36253;SDS011;22291;52.250;21.228;2023-04-01T10:31:41;8.90;;;6.37;;
36253;SDS011;22291;52.250;21.228;2023-04-01T10:34:22;6.70;;;4.78;;
36253;SDS011;22291;52.250;21.228;2023-04-01T10:37:15;6.58;;;4.65;;
36253;SDS011;22291;52.250;21.228;2023-04-01T10:46:33;5.53;;;4.33;;
36253;SDS011;22291;52.250;21.228;2023-04-01T11:01:39;6.65;;;4.45;;
36253;SDS011;22291;52.250;21.228;2023-04-01T11:07:42;4.78;;;3.95;;
36253;SDS011;22291;52.250;21.228;2023-04-01T11:13:59;8.03;;;5.00;;
36253;SDS011;22291;52.250;21.228;2023-04-01T11:16:58;8.05;;;5.22;;
36253;SDS011;22291;52.250;21.228;2023-04-01T11:22:43;9.08;;;4.92;;
36253;SDS011;22291;52.250;21.228;2023-04-01T11:25:58;10.70;;;6.37;;
36253;SDS011;22291;52.250;21.228;2023-04-01T11:40:06;7.47;;;5.03;;
36253;SDS011;22291;52.250;21.228;2023-04-01T11:42:46;5.95;;;4.22;;
36253;SDS011;22291;52.250;21.228;2023-04-01T11:45:45;5.47;;;4.17;;
36253;SDS011;22291;52.250;21.228;2023-04-01T11:54:41;7.22;;;4.50;;
36253;SDS011;22291;52.250;21.228;2023-04-01T12:05:58;10.78;;;7.17;;
36253;SDS011;22291;52.250;21.228;2023-04-01T12:17:29;6.67;;;3.90;;
36253;SDS011;22291;52.250;21.228;2023-04-01T12:25:38;4.95;;;4.12;;
36253;SDS011;22291;52.250;21.228;2023-04-01T12:28:15;6.08;;;4.17;;
36253;SDS011;22291;52.250;21.228;2023-04-01T12:30:48;5.78;;;3.75;;
36253;SDS011;22291;52.250;21.228;2023-04-01T12:36:40;6.85;;;5.00;;
36253;SDS011;22291;52.250;21.228;2023-04-01T12:39:44;9.18;;;5.35;;
36253;SDS011;22291;52.250;21.228;2023-04-01T12:42:22;11.83;;;5.62;;
36253;SDS011;22291;52.250;21.228;2023-04-01T12:48:03;8.78;;;5.20;;
36253;SDS011;22291;52.250;21.228;2023-04-01T12:57:07;6.17;;;4.50;;
36253;SDS011;22291;52.250;21.228;2023-04-01T13:02:56;7.58;;;3.20;;
36253;SDS011;22291;52.250;21.228;2023-04-01T13:11:37;5.53;;;3.62;;
36253;SDS011;22291;52.250;21.228;2023-04-01T13:28:19;11.22;;;6.95;;
36253;SDS011;22291;52.250;21.228;2023-04-01T13:31:07;16.12;;;10.53;;
36253;SDS011;22291;52.250;21.228;2023-04-01T13:34:05;7.72;;;4.83;;
36253;SDS011;22291;52.250;21.228;2023-04-01T13:42:54;2.52;;;1.70;;
36253;SDS011;22291;52.250;21.228;2023-04-01T13:51:29;3.12;;;2.00;;
36253;SDS011;22291;52.250;21.228;2023-04-01T13:57:16;5.40;;;3.10;;
36253;SDS011;22291;52.250;21.228;2023-04-01T14:11:39;5.42;;;3.40;;
36253;SDS011;22291;52.250;21.228;2023-04-01T14:14:21;2.30;;;1.98;;
36253;SDS011;22291;52.250;21.228;2023-04-01T14:20:14;3.20;;;2.15;;
36253;SDS011;22291;52.250;21.228;2023-04-01T14:22:45;3.77;;;2.27;;
36253;SDS011;22291;52.250;21.228;2023-04-01T14:28:29;3.00;;;1.95;;
36253;SDS011;22291;52.250;21.228;2023-04-01T14:40:40;3.90;;;3.20;;
36253;SDS011;22291;52.250;21.228;2023-04-01T14:46:50;3.10;;;2.80;;
36253;SDS011;22291;52.250;21.228;2023-04-01T14:49:50;4.65;;;3.40;;
36253;SDS011;22291;52.250;21.228;2023-04-01T14:52:26;3.85;;;3.00;;
36253;SDS011;22291;52.250;21.228;2023-04-01T14:55:02;3.75;;;3.02;;
36253;SDS011;22291;52.250;21.228;2023-04-01T14:57:59;5.83;;;3.52;;
36253;SDS011;22291;52.250;21.228;2023-04-01T15:00:50;4.80;;;3.67;;
36253;SDS011;22291;52.250;21.228;2023-04-01T15:21:06;7.17;;;4.10;;
36253;SDS011;22291;52.250;21.228;2023-04-01T15:34:59;6.83;;;4.35;;
36253;SDS011;22291;52.250;21.228;2023-04-01T15:37:52;11.67;;;5.17;;
36253;SDS011;22291;52.250;21.228;2023-04-01T15:40:24;8.90;;;5.37;;
36253;SDS011;22291;52.250;21.228;2023-04-01T16:06:21;4.92;;;2.95;;
36253;SDS011;22291;52.250;21.228;2023-04-01T16:09:16;5.17;;;2.87;;
36253;SDS011;22291;52.250;21.228;2023-04-01T16:11:57;3.67;;;2.20;;
36253;SDS011;22291;52.250;21.228;2023-04-01T16:14:42;4.58;;;2.37;;
36253;SDS011;22291;52.250;21.228;2023-04-01T16:17:30;3.00;;;2.10;;
36253;SDS011;22291;52.250;21.228;2023-04-01T16:20:14;4.58;;;1.98;;
36253;SDS011;22291;52.250;21.228;2023-04-01T16:23:00;3.12;;;1.72;;
36253;SDS011;22291;52.250;21.228;2023-04-01T16:25:40;8.23;;;3.45;;
36253;SDS011;22291;52.250;21.228;2023-04-01T16:31:06;3.12;;;2.22;;
36253;SDS011;22291;52.250;21.228;2023-04-01T16:34:03;3.35;;;2.00;;
36253;SDS011;22291;52.250;21.228;2023-04-01T16:37:12;9.18;;;4.70;;
36253;SDS011;22291;52.250;21.228;2023-04-01T16:39:58;6.72;;;3.00;;
36253;SDS011;22291;52.250;21.228;2023-04-01T16:42:48;4.78;;;2.30;;
36253;SDS011;22291;52.250;21.228;2023-04-01T16:45:26;5.85;;;3.67;;
36253;SDS011;22291;52.250;21.228;2023-04-01T16:47:56;7.10;;;3.85;;
36253;SDS011;22291;52.250;21.228;2023-04-01T16:50:29;4.15;;;3.30;;
36253;SDS011;22291;52.250;21.228;2023-04-01T16:58:35;6.28;;;4.50;;
36253;SDS011;22291;52.250;21.228;2023-04-01T17:01:21;7.47;;;4.12;;
36253;SDS011;22291;52.250;21.228;2023-04-01T17:04:06;7.10;;;3.20;;
36253;SDS011;22291;52.250;21.228;2023-04-01T17:06:45;4.78;;;2.90;;
36253;SDS011;22291;52.250;21.228;2023-04-01T17:12:43;5.97;;;3.55;;
36253;SDS011;22291;52.250;21.228;2023-04-01T17:15:23;5.05;;;3.02;;
36253;SDS011;22291;52.250;21.228;2023-04-01T17:18:01;3.58;;;2.22;;
36253;SDS011;22291;52.250;21.228;2023-04-01T17:20:42;5.55;;;3.95;;
36253;SDS011;22291;52.250;21.228;2023-04-01T17:23:31;5.17;;;3.50;;
36253;SDS011;22291;52.250;21.228;2023-04-01T17:26:28;5.85;;;3.70;;
36253;SDS011;22291;52.250;21.228;2023-04-01T17:32:17;5.03;;;3.37;;
36253;SDS011;22291;52.250;21.228;2023-04-01T17:35:09;6.78;;;3.80;;
36253;SDS011;22291;52.250;21.228;2023-04-01T17:43:49;5.95;;;3.55;;
36253;SDS011;22291;52.250;21.228;2023-04-01T17:46:31;5.40;;;3.42;;
36253;SDS011;22291;52.250;21.228;2023-04-01T17:58:47;9.53;;;4.92;;
36253;SDS011;22291;52.250;21.228;2023-04-01T18:01:55;9.13;;;5.28;;
36253;SDS011;22291;52.250;21.228;2023-04-01T18:04:30;7.00;;;4.28;;
36253;SDS011;22291;52.250;21.228;2023-04-01T18:10:22;10.15;;;4.78;;
36253;SDS011;22291;52.250;21.228;2023-04-01T18:13:18;9.55;;;5.28;;
36253;SDS011;22291;52.250;21.228;2023-04-01T18:19:09;9.30;;;4.40;;
36253;SDS011;22291;52.250;21.228;2023-04-01T18:21:54;8.05;;;4.85;;
36253;SDS011;22291;52.250;21.228;2023-04-01T18:24:33;7.80;;;4.83;;
36253;SDS011;22291;52.250;21.228;2023-04-01T18:30:21;39.60;;;25.55;;
36253;SDS011;22291;52.250;21.228;2023-04-01T18:38:35;9.10;;;6.30;;
36253;SDS011;22291;52.250;21.228;2023-04-01T18:41:15;10.53;;;6.92;;
36253;SDS011;22291;52.250;21.228;2023-04-01T18:47:07;9.78;;;6.05;;
36253;SDS011;22291;52.250;21.228;2023-04-01T18:52:42;9.95;;;5.83;;
36253;SDS011;22291;52.250;21.228;2023-04-01T19:04:00;12.10;;;6.67;;
36253;SDS011;22291;52.250;21.228;2023-04-01T19:07:32;9.25;;;5.92;;
36253;SDS011;22291;52.250;21.228;2023-04-01T19:21:35;12.73;;;7.20;;
36253;SDS011;22291;52.250;21.228;2023-04-01T19:27:38;8.23;;;5.78;;
36253;SDS011;22291;52.250;21.228;2023-04-01T19:38:31;7.97;;;5.90;;
36253;SDS011;22291;52.250;21.228;2023-04-01T21:25:28;5.62;;;4.20;;
36253;SDS011;22291;52.250;21.228;2023-04-01T21:28:07;4.60;;;3.55;;
36253;SDS011;22291;52.250;21.228;2023-04-01T21:30:49;7.78;;;5.28;;
36253;SDS011;22291;52.250;21.228;2023-04-01T21:33:55;5.92;;;4.28;;
36253;SDS011;22291;52.250;21.228;2023-04-01T21:37:06;6.17;;;4.03;;
36253;SDS011;22291;52.250;21.228;2023-04-01T21:54:58;6.17;;;4.17;;
36253;SDS011;22291;52.250;21.228;2023-04-01T22:07:02;8.75;;;5.25;;
36253;SDS011;22291;52.250;21.228;2023-04-01T22:12:47;7.70;;;4.67;;
36253;SDS011;22291;52.250;21.228;2023-04-01T22:18:32;8.05;;;5.28;;
36253;SDS011;22291;52.250;21.228;2023-04-01T22:27:14;7.95;;;4.72;;
36253;SDS011;22291;52.250;21.228;2023-04-01T22:30:19;8.23;;;5.10;;
36253;SDS011;22291;52.250;21.228;2023-04-01T22:32:52;9.48;;;5.55;;
36253;SDS011;22291;52.250;21.228;2023-04-01T22:35:56;7.75;;;5.40;;
36253;SDS011;22291;52.250;21.228;2023-04-01T22:41:17;9.38;;;5.70;;
36253;SDS011;22291;52.250;21.228;2023-04-01T22:43:54;15.98;;;5.60;;
36253;SDS011;22291;52.250;21.228;2023-04-01T22:46:35;10.05;;;5.33;;
36253;SDS011;22291;52.250;21.228;2023-04-01T22:51:42;9.50;;;6.20;;
36253;SDS011;22291;52.250;21.228;2023-04-01T22:54:27;9.83;;;5.87;;
36253;SDS011;22291;52.250;21.228;2023-04-01T23:00:06;11.40;;;5.10;;
36253;SDS011;22291;52.250;21.228;2023-04-01T23:06:04;11.63;;;5.45;;
36253;SDS011;22291;52.250;21.228;2023-04-01T23:11:30;11.70;;;6.05;;
36253;SDS011;22291;52.250;21.228;2023-04-01T23:17:09;8.90;;;6.00;;
36253;SDS011;22291;52.250;21.228;2023-04-01T23:28:46;9.83;;;5.97;;
36253;SDS011;22291;52.250;21.228;2023-04-01T23:31:00;11.28;;;6.58;;
36253;SDS011;22291;52.250;21.228;2023-04-01T23:33:28;12.23;;;6.20;;
36253;SDS011;22291;52.250;21.228;2023-04-01T23:38:37;9.95;;;6.03;;
36253;SDS011;22291;52.250;21.228;2023-04-01T23:41:16;11.63;;;6.90;;
36253;SDS011;22291;52.250;21.228;2023-04-01T23:43:56;11.88;;;6.83;;
36253;SDS011;22291;52.250;21.228;2023-04-01T23:46:28;10.65;;;6.47;;
36253;SDS011;22291;52.250;21.228;2023-04-01T23:48:58;9.90;;;6.17;;
36253;SDS011;22291;52.250;21.228;2023-04-01T23:51:29;11.50;;;7.00;;
36253;SDS011;22291;52.250;21.228;2023-04-01T23:54:19;12.82;;;7.08;;
36253;SDS011;22291;52.250;21.228;2023-04-01T23:56:59;13.50;;;7.67;;
36253;SDS011;22291;52.250;21.228;2023-04-01T23:59:35;13.53;;;7.35;;
